This is the latest recevied weather packets stored in our database for station/object EA1FBN. If no packets are shown the sender has not sent any weather packets the latest 10 day(s).
| Time | Temp. | Humidity | Pressure | Rain* | Wind** | Luminosity | Snow |
|---|---|---|---|---|---|---|---|
| 1777679127 | 12.22° C | 42% | 1018.6 hPa | 0 mm | - | - | - |
| 1777678826 | 12.22° C | 42% | 1018.7 hPa | 0 mm | - | - | - |
| 1777678226 | 12.22° C | 43% | 1018.8 hPa | 0 mm | - | - | - |
| 1777677926 | 12.22° C | 44% | 1018.7 hPa | 0 mm | - | - | - |
| 1777677626 | 12.22° C | 45% | 1018.7 hPa | 0 mm | - | - | - |
| 1777677326 | 12.22° C | 46% | 1018.7 hPa | 0 mm | - | - | - |
| 1777677027 | 12.22° C | 47% | 1018.6 hPa | 0 mm | - | - | - |
| 1777676727 | 12.22° C | 48% | 1018.6 hPa | 0 mm | - | - | - |
| 1777676427 | 12.22° C | 51% | 1018.6 hPa | 0 mm | - | - | - |
| 1777676127 | 12.22° C | 53% | 1018.6 hPa | 0 mm | - | - | - |
| 1777675827 | 12.22° C | 57% | 1018.7 hPa | 0 mm | - | - | - |
| 1777675527 | 12.22° C | 61% | 1019 hPa | 0 mm | - | - | - |
| 1777675227 | 12.22° C | 68% | 1019.8 hPa | 0 mm | - | - | - |
| 1777674627 | 13.89° C | 74% | 1020.1 hPa | 0 mm | - | - | - |
| 1777674329 | 14.44° C | 73% | 1019.9 hPa | 0 mm | - | - | - |
| 1777674027 | 15° C | 73% | 1019.5 hPa | 0 mm | - | - | - |
| 1777673727 | 15° C | 73% | 1019.4 hPa | 0 mm | - | - | - |
| 1777673427 | 15° C | 73% | 1018.7 hPa | 0 mm | - | - | - |
| 1777673127 | 15.56° C | 72% | 1018.4 hPa | 0 mm | - | - | - |
| 1777672827 | 15.56° C | 71% | 1018.4 hPa | 0 mm | - | - | - |
| 1777672527 | 15.56° C | 72% | 1018.4 hPa | 0 mm | - | - | - |
| 1777672227 | 15.56° C | 72% | 1018.3 hPa | 0 mm | - | - | - |
| 1777671927 | 15.56° C | 73% | 1018.4 hPa | 0 mm | - | - | - |
| 1777671627 | 15.56° C | 72% | 1018.4 hPa | 0 mm | - | - | - |
| 1777671027 | 15.56° C | 71% | 1018.4 hPa | 0 mm | - | - | - |
* Rain latest hour (hover to see other rain measurements)
** Current wind speed in m/s (hover to see current wind gust speed)